createdAt,value
2019-02-25T00:01:55.209Z,67.10
2019-02-25T00:04:29.761Z,67.10
2019-02-25T00:07:04.334Z,67.20
2019-02-25T00:09:40.056Z,67.20
2019-02-25T00:12:15.828Z,67.30
2019-02-25T00:14:50.352Z,67.20
2019-02-25T00:17:25.590Z,68.10
2019-02-25T00:20:00.261Z,67.30
2019-02-25T00:22:41.435Z,67.40
2019-02-25T00:25:17.101Z,67.30
2019-02-25T00:27:53.548Z,67.50
2019-02-25T00:30:28.018Z,67.20
2019-02-25T00:33:03.418Z,67.50
2019-02-25T00:35:38.153Z,67.50
2019-02-25T00:38:15.736Z,67.60
2019-02-25T00:40:50.719Z,67.60
2019-02-25T00:43:25.872Z,67.70
2019-02-25T00:46:00.967Z,67.60
2019-02-25T00:48:36.292Z,67.60
2019-02-25T00:51:11.871Z,67.60
2019-02-25T00:53:47.529Z,67.80
2019-02-25T00:56:22.234Z,67.70
2019-02-25T00:58:57.848Z,67.70
2019-02-25T01:01:32.739Z,67.70
2019-02-25T01:04:09.698Z,67.70
2019-02-25T01:06:44.208Z,67.60
2019-02-25T01:09:19.237Z,67.60
2019-02-25T01:11:53.997Z,67.60
2019-02-25T01:14:28.876Z,67.70
2019-02-25T01:17:03.768Z,67.60
2019-02-25T01:19:38.852Z,67.60
2019-02-25T01:22:14.436Z,67.70
2019-02-25T01:24:49.321Z,67.70
2019-02-25T01:27:24.487Z,67.60
2019-02-25T01:30:00.283Z,67.50
2019-02-25T01:32:34.958Z,67.60
2019-02-25T01:35:09.797Z,67.60
2019-02-25T01:37:46.806Z,67.50
2019-02-25T01:40:21.600Z,67.50
2019-02-25T01:42:56.349Z,67.50
2019-02-25T01:45:32.365Z,67.60
2019-02-25T01:48:06.342Z,67.50
2019-02-25T01:50:41.215Z,67.70
2019-02-25T01:53:15.573Z,67.70
2019-02-25T01:55:50.803Z,67.70
2019-02-25T01:58:25.430Z,67.70
2019-02-25T02:01:00.252Z,67.70
2019-02-25T02:03:34.840Z,67.70
2019-02-25T02:06:09.288Z,67.70
2019-02-25T02:08:44.291Z,67.70
2019-02-25T02:11:19.205Z,67.80
2019-02-25T02:13:53.715Z,67.70
2019-02-25T02:16:28.174Z,67.70
2019-02-25T02:19:03.176Z,67.80
2019-02-25T02:21:39.962Z,67.80
2019-02-25T02:24:14.759Z,67.80
2019-02-25T02:26:49.424Z,67.90
2019-02-25T02:29:23.990Z,67.80
2019-02-25T02:31:58.796Z,67.70
2019-02-25T02:34:33.743Z,67.70
2019-02-25T02:37:08.905Z,67.70
2019-02-25T02:39:44.645Z,67.70
2019-02-25T02:42:26.677Z,67.60
2019-02-25T02:45:20.587Z,67.70
2019-02-25T02:48:01.438Z,67.70
2019-02-25T02:50:36.226Z,67.60
2019-02-25T02:53:10.887Z,67.60
2019-02-25T02:55:45.591Z,67.60
2019-02-25T02:58:20.277Z,67.50
2019-02-25T03:00:55.150Z,67.50
2019-02-25T03:03:29.620Z,67.40
2019-02-25T03:06:05.466Z,67.30
2019-02-25T03:08:40.098Z,67.30
2019-02-25T03:11:14.592Z,67.30
2019-02-25T03:13:49.452Z,67.20
2019-02-25T03:16:23.892Z,67.20
2019-02-25T03:18:58.923Z,67.20
2019-02-25T03:21:33.169Z,67.20
2019-02-25T03:24:08.274Z,67.10
2019-02-25T03:26:43.142Z,67.10
2019-02-25T03:29:18.117Z,67.00
2019-02-25T03:31:52.780Z,67.90
2019-02-25T03:34:28.014Z,67.00
2019-02-25T03:37:02.350Z,67.00
2019-02-25T03:39:37.102Z,66.90
2019-02-25T03:42:13.148Z,67.80
2019-02-25T03:44:47.917Z,66.80
2019-02-25T03:47:22.451Z,66.80
2019-02-25T03:49:57.006Z,66.70
2019-02-25T03:52:31.795Z,66.60
2019-02-25T03:55:06.569Z,66.60
2019-02-25T03:57:41.522Z,66.40
2019-02-25T04:00:23.535Z,66.40
2019-02-25T04:02:58.539Z,66.40
2019-02-25T04:05:33.326Z,66.10
2019-02-25T04:08:08.326Z,66.10
2019-02-25T04:10:43.451Z,66.00
2019-02-25T04:13:18.139Z,66.00
2019-02-25T04:15:52.911Z,65.80
2019-02-25T04:18:27.521Z,65.70
2019-02-25T04:21:02.197Z,65.60
2019-02-25T04:23:36.942Z,65.50
2019-02-25T04:26:12.300Z,65.40
2019-02-25T04:28:47.443Z,65.30
2019-02-25T04:31:22.035Z,65.30
2019-02-25T04:33:56.606Z,65.10
2019-02-25T04:36:31.576Z,65.10
2019-02-25T04:39:06.642Z,64.10
2019-02-25T04:41:42.021Z,64.80
2019-02-25T04:44:16.483Z,64.70
2019-02-25T04:46:51.208Z,65.10
2019-02-25T04:49:26.140Z,64.50
2019-02-25T04:52:00.914Z,64.50
2019-02-25T04:54:35.643Z,64.30
2019-02-25T04:57:10.591Z,64.30
2019-02-25T04:59:46.066Z,64.00
2019-02-25T05:02:20.896Z,64.10
2019-02-25T05:04:56.066Z,63.90
2019-02-25T05:07:30.859Z,63.70
2019-02-25T05:10:05.486Z,63.70
2019-02-25T05:12:40.857Z,63.50
2019-02-25T05:15:16.957Z,63.50
2019-02-25T05:18:21.814Z,63.40
2019-02-25T05:20:56.812Z,63.50
2019-02-25T05:23:31.513Z,63.40
2019-02-25T05:26:07.498Z,63.40
2019-02-25T05:28:42.293Z,63.30
2019-02-25T05:31:17.914Z,63.10
2019-02-25T05:33:52.729Z,63.00
2019-02-25T05:36:27.234Z,62.90
2019-02-25T05:39:02.338Z,62.80
2019-02-25T05:41:39.100Z,62.70
2019-02-25T05:44:13.998Z,62.60
2019-02-25T05:46:49.222Z,62.50
2019-02-25T05:49:23.077Z,62.50
2019-02-25T05:51:57.876Z,62.40
2019-02-25T05:54:31.829Z,62.30
2019-02-25T05:57:06.792Z,62.30
2019-02-25T05:59:42.964Z,62.50
2019-02-25T06:02:34.635Z,62.10
2019-02-25T06:05:09.938Z,61.90
2019-02-25T06:07:44.320Z,61.80
2019-02-25T06:10:19.536Z,61.70
2019-02-25T06:12:55.370Z,61.70
2019-02-25T06:15:37.146Z,61.50
2019-02-25T06:18:14.881Z,61.50
2019-02-25T06:20:55.533Z,61.30
2019-02-25T06:23:30.150Z,61.40
2019-02-25T06:26:04.847Z,61.20
2019-02-25T06:28:40.424Z,61.10
2019-02-25T06:31:15.571Z,60.90
2019-02-25T06:33:51.761Z,60.70
2019-02-25T06:36:26.565Z,60.60
2019-02-25T06:39:01.249Z,60.50
2019-02-25T06:41:35.578Z,60.30
2019-02-25T06:44:10.350Z,60.20
2019-02-25T06:46:44.723Z,60.00
2019-02-25T06:49:38.621Z,60.00
2019-02-25T06:52:14.152Z,59.80
2019-02-25T06:54:49.507Z,59.60
2019-02-25T06:57:23.741Z,59.60
2019-02-25T06:59:58.715Z,59.50
2019-02-25T07:02:33.530Z,59.40
2019-02-25T07:05:23.932Z,59.30
2019-02-25T07:08:22.943Z,59.30
2019-02-25T07:11:25.316Z,59.30
2019-02-25T07:14:28.064Z,59.20
2019-02-25T07:17:19.769Z,59.20
2019-02-25T07:20:11.624Z,59.10
2019-02-25T07:22:52.903Z,59.00
2019-02-25T07:25:39.990Z,59.00
2019-02-25T07:28:32.644Z,59.10
2019-02-25T07:31:23.887Z,59.00
2019-02-25T07:34:15.950Z,59.10
2019-02-25T07:37:24.215Z,58.90
2019-02-25T07:40:13.753Z,58.90
2019-02-25T07:43:15.383Z,58.90
2019-02-25T07:46:07.314Z,58.90
2019-02-25T07:48:52.519Z,58.90
2019-02-25T07:51:44.883Z,58.90
2019-02-25T07:54:47.013Z,58.80
2019-02-25T07:57:38.817Z,58.80
2019-02-25T08:00:18.143Z,58.70
2019-02-25T08:02:59.344Z,58.70
2019-02-25T08:05:47.657Z,58.60
2019-02-25T08:08:46.759Z,58.70
2019-02-25T08:11:28.802Z,58.60
2019-02-25T08:14:23.718Z,58.60
2019-02-25T08:17:22.811Z,58.50
2019-02-25T08:20:15.927Z,58.60
2019-02-25T08:23:02.260Z,58.60
2019-02-25T08:25:47.795Z,58.60
2019-02-25T08:28:46.686Z,58.50
2019-02-25T08:31:32.700Z,58.50
2019-02-25T08:34:26.336Z,58.50
2019-02-25T08:37:22.836Z,59.00
2019-02-25T08:40:47.548Z,58.30
2019-02-25T08:43:43.455Z,58.30
2019-02-25T08:46:45.616Z,58.20
2019-02-25T08:49:27.361Z,58.20
2019-02-25T08:52:01.956Z,58.20
2019-02-25T08:54:36.511Z,58.20
2019-02-25T08:57:11.334Z,58.20
2019-02-25T08:59:46.035Z,58.20
2019-02-25T09:02:20.838Z,58.20
2019-02-25T09:04:56.744Z,58.20
2019-02-25T09:07:31.382Z,58.20
2019-02-25T09:10:06.263Z,58.10
2019-02-25T09:12:40.899Z,58.00
2019-02-25T09:15:16.606Z,58.00
2019-02-25T09:17:47.688Z,58.10
2019-02-25T09:20:22.653Z,58.00
2019-02-25T09:22:57.589Z,58.60
2019-02-25T09:25:32.531Z,57.90
2019-02-25T09:28:09.095Z,57.90
2019-02-25T09:30:44.663Z,57.90
2019-02-25T09:33:19.614Z,57.90
2019-02-25T09:35:54.901Z,57.90
2019-02-25T09:38:29.546Z,57.90
2019-02-25T09:41:08.546Z,57.90
2019-02-25T09:43:43.353Z,58.00
2019-02-25T09:46:18.324Z,57.90
2019-02-25T09:48:53.118Z,57.90
2019-02-25T09:51:27.782Z,57.90
2019-02-25T09:54:03.345Z,57.90
2019-02-25T09:56:38.403Z,57.90
2019-02-25T09:59:12.983Z,57.90
2019-02-25T10:01:47.521Z,57.80
2019-02-25T10:04:29.217Z,57.80
2019-02-25T10:07:04.119Z,57.80
2019-02-25T10:09:40.078Z,57.70
2019-02-25T10:12:14.672Z,57.70
2019-02-25T10:14:49.803Z,57.70
2019-02-25T10:17:24.293Z,57.80
2019-02-25T10:19:59.542Z,57.80
2019-02-25T10:22:34.215Z,58.30
2019-02-25T10:25:08.990Z,57.70
2019-02-25T10:27:43.380Z,57.70
2019-02-25T10:30:18.773Z,57.70
2019-02-25T10:32:53.467Z,57.60
2019-02-25T10:35:28.657Z,58.20
2019-02-25T10:38:03.359Z,57.60
2019-02-25T10:40:38.483Z,57.70
2019-02-25T10:43:13.877Z,57.60
2019-02-25T10:45:48.568Z,57.60
2019-02-25T10:48:25.772Z,57.60
2019-02-25T10:51:02.615Z,57.70
2019-02-25T10:53:37.455Z,57.70
2019-02-25T10:56:23.778Z,57.30
2019-02-25T10:59:01.867Z,57.70
2019-02-25T11:01:37.502Z,57.60
2019-02-25T11:04:12.482Z,57.60
2019-02-25T11:06:48.262Z,57.40
2019-02-25T11:09:43.974Z,57.70
2019-02-25T11:12:18.656Z,57.60
2019-02-25T11:14:54.541Z,57.70
2019-02-25T11:17:29.289Z,57.80
2019-02-25T11:20:05.711Z,57.80
2019-02-25T11:22:42.420Z,57.80
2019-02-25T11:25:17.272Z,57.90
2019-02-25T11:27:53.180Z,57.90
2019-02-25T11:30:28.509Z,57.50
2019-02-25T11:33:03.310Z,56.20
2019-02-25T11:35:39.380Z,54.80
2019-02-25T11:38:14.458Z,53.50
2019-02-25T11:40:49.501Z,52.20
2019-02-25T11:43:24.566Z,51.10
2019-02-25T11:46:00.029Z,50.30
2019-02-25T11:48:34.447Z,49.40
2019-02-25T11:51:09.080Z,48.80
2019-02-25T11:53:45.223Z,48.50
2019-02-25T11:56:19.964Z,47.70
2019-02-25T11:58:54.886Z,47.30
2019-02-25T12:01:37.359Z,46.70
2019-02-25T12:04:12.002Z,46.30
2019-02-25T12:06:47.754Z,46.10
2019-02-25T12:09:22.532Z,45.80
2019-02-25T12:11:57.389Z,45.60
2019-02-25T12:14:31.947Z,45.30
2019-02-25T12:17:07.560Z,45.20
2019-02-25T12:19:43.049Z,45.70
2019-02-25T12:22:18.074Z,44.90
2019-02-25T12:24:52.763Z,44.80
2019-02-25T12:27:28.441Z,44.70
2019-02-25T12:30:03.605Z,44.90
2019-02-25T12:32:38.464Z,45.20
2019-02-25T12:35:13.030Z,45.50
2019-02-25T12:37:47.854Z,45.80
2019-02-25T12:40:23.892Z,45.90
2019-02-25T12:42:58.920Z,46.20
2019-02-25T12:45:35.734Z,46.30
2019-02-25T12:48:10.550Z,46.40
2019-02-25T12:50:45.198Z,46.60
2019-02-25T12:53:19.969Z,46.60
2019-02-25T12:55:54.939Z,46.60
2019-02-25T12:58:36.901Z,46.60
2019-02-25T13:01:11.653Z,46.70
2019-02-25T13:03:46.600Z,47.90
2019-02-25T13:06:21.465Z,49.30
2019-02-25T13:08:56.664Z,49.30
2019-02-25T13:11:31.249Z,48.90
2019-02-25T13:14:07.963Z,48.50
2019-02-25T13:16:42.894Z,48.20
2019-02-25T13:19:17.564Z,48.00
2019-02-25T13:21:52.431Z,48.50
2019-02-25T13:24:28.437Z,49.80
2019-02-25T13:27:05.665Z,50.50
2019-02-25T13:29:40.439Z,50.00
2019-02-25T13:32:15.044Z,49.50
2019-02-25T13:34:49.510Z,49.00
2019-02-25T13:37:25.075Z,48.70
2019-02-25T13:40:00.976Z,49.10
2019-02-25T13:42:35.842Z,50.30
2019-02-25T13:45:11.070Z,50.90
2019-02-25T13:47:45.436Z,50.30
2019-02-25T13:50:21.093Z,50.20
2019-02-25T13:52:55.739Z,51.10
2019-02-25T13:55:30.904Z,51.20
2019-02-25T13:58:05.957Z,50.70
2019-02-25T14:00:41.123Z,50.20
2019-02-25T14:03:16.027Z,49.50
2019-02-25T14:05:51.150Z,49.50
2019-02-25T14:08:25.923Z,50.40
2019-02-25T14:11:02.321Z,51.60
2019-02-25T14:13:36.837Z,52.00
2019-02-25T14:16:11.005Z,52.40
2019-02-25T14:18:46.599Z,52.60
2019-02-25T14:21:21.310Z,52.70
2019-02-25T14:23:57.678Z,53.10
2019-02-25T14:26:33.170Z,53.50
2019-02-25T14:29:09.700Z,53.70
2019-02-25T14:31:48.941Z,54.20
2019-02-25T14:34:31.686Z,54.40
2019-02-25T14:37:10.195Z,54.60
2019-02-25T14:39:49.407Z,54.70
2019-02-25T14:42:23.424Z,54.90
2019-02-25T14:44:58.598Z,55.20
2019-02-25T14:47:37.552Z,55.50
2019-02-25T14:50:13.158Z,55.50
2019-02-25T14:52:48.376Z,55.60
2019-02-25T14:55:22.975Z,55.80
2019-02-25T14:57:59.927Z,56.00
2019-02-25T15:00:35.273Z,56.10
2019-02-25T15:03:09.838Z,56.40
2019-02-25T15:05:45.868Z,56.40
2019-02-25T15:08:21.823Z,56.50
2019-02-25T15:11:01.989Z,56.80
2019-02-25T15:13:34.988Z,56.70
2019-02-25T15:16:10.545Z,56.80
2019-02-25T15:18:45.967Z,57.00
2019-02-25T15:21:21.292Z,57.10
2019-02-25T15:23:56.350Z,57.10
2019-02-25T15:26:31.452Z,57.30
2019-02-25T15:29:10.159Z,57.30
2019-02-25T15:31:46.279Z,57.50
2019-02-25T15:34:20.948Z,57.50
2019-02-25T15:36:56.468Z,57.60
2019-02-25T15:39:32.056Z,57.70
2019-02-25T15:42:06.996Z,57.90
2019-02-25T15:44:42.331Z,58.00
2019-02-25T15:47:18.098Z,58.10
2019-02-25T15:49:55.360Z,58.10
2019-02-25T15:52:39.723Z,58.40
2019-02-25T15:55:13.058Z,57.70
2019-02-25T15:57:46.293Z,58.50
2019-02-25T16:00:23.280Z,58.60
2019-02-25T16:02:59.899Z,58.60
2019-02-25T16:05:36.788Z,58.70
2019-02-25T16:08:20.956Z,58.70
2019-02-25T16:10:55.561Z,58.80
2019-02-25T16:13:32.139Z,58.90
2019-02-25T16:16:06.585Z,59.00
2019-02-25T16:18:43.240Z,59.00
2019-02-25T16:21:17.964Z,59.20
2019-02-25T16:23:53.838Z,59.10
2019-02-25T16:26:28.482Z,59.20
2019-02-25T16:29:07.296Z,59.30
2019-02-25T16:31:42.015Z,59.50
2019-02-25T16:34:18.385Z,59.40
2019-02-25T16:36:53.762Z,59.50
2019-02-25T16:39:29.553Z,59.50
2019-02-25T16:42:04.131Z,59.50
2019-02-25T16:44:39.399Z,59.60
2019-02-25T16:47:15.644Z,59.70
2019-02-25T16:49:51.657Z,59.70
2019-02-25T16:52:27.046Z,59.80
2019-02-25T16:55:03.391Z,59.80
2019-02-25T16:57:39.115Z,59.90
2019-02-25T17:00:16.476Z,60.00
2019-02-25T17:02:51.303Z,60.00
2019-02-25T17:05:26.319Z,60.00
2019-02-25T17:08:03.312Z,60.10
2019-02-25T17:10:38.367Z,61.00
2019-02-25T17:13:14.907Z,60.10
2019-02-25T17:15:50.369Z,60.20
2019-02-25T17:18:26.652Z,60.30
2019-02-25T17:21:00.993Z,60.30
2019-02-25T17:23:42.734Z,60.30
2019-02-25T17:26:19.655Z,60.40
2019-02-25T17:28:58.939Z,60.50
2019-02-25T17:31:36.616Z,60.50
2019-02-25T17:34:14.268Z,60.60
2019-02-25T17:36:50.758Z,60.60
2019-02-25T17:39:26.917Z,60.80
2019-02-25T17:42:03.532Z,60.80
2019-02-25T17:44:39.776Z,60.90
2019-02-25T17:47:21.575Z,60.80
2019-02-25T17:49:50.497Z,61.00
2019-02-25T17:52:25.402Z,61.10
2019-02-25T17:55:01.505Z,61.10
2019-02-25T17:57:37.392Z,61.10
2019-02-25T18:00:17.764Z,61.20
2019-02-25T18:02:52.934Z,61.90
2019-02-25T18:05:33.502Z,61.20
2019-02-25T18:08:10.589Z,61.30
2019-02-25T18:10:45.998Z,61.40
2019-02-25T18:13:21.915Z,61.40
2019-02-25T18:15:58.457Z,61.40
2019-02-25T18:18:33.205Z,61.40
2019-02-25T18:21:09.047Z,61.40
2019-02-25T18:23:43.799Z,61.40
2019-02-25T18:26:18.517Z,61.50
2019-02-25T18:28:54.390Z,61.50
2019-02-25T18:31:29.019Z,61.60
2019-02-25T18:34:04.860Z,61.60
2019-02-25T18:36:40.905Z,61.70
2019-02-25T18:39:17.223Z,61.70
2019-02-25T18:41:53.375Z,61.70
2019-02-25T18:44:27.908Z,61.70
2019-02-25T18:47:03.022Z,61.80
2019-02-25T18:49:37.396Z,61.80
2019-02-25T18:52:12.280Z,61.90
2019-02-25T18:54:47.506Z,61.80
2019-02-25T18:57:23.130Z,61.90
2019-02-25T18:59:59.360Z,62.00
2019-02-25T19:02:36.456Z,62.00
2019-02-25T19:05:13.940Z,62.00
2019-02-25T19:07:49.180Z,62.10
2019-02-25T19:10:24.812Z,62.10
2019-02-25T19:13:01.988Z,62.20
2019-02-25T19:15:42.664Z,62.20
2019-02-25T19:18:17.758Z,62.20
2019-02-25T19:20:52.431Z,62.10
2019-02-25T19:23:27.128Z,62.20
2019-02-25T19:26:01.884Z,62.20
2019-02-25T19:28:37.745Z,62.40
2019-02-25T19:31:13.348Z,62.40
2019-02-25T19:33:49.895Z,63.30
2019-02-25T19:36:27.642Z,62.20
2019-02-25T19:39:04.928Z,62.40
2019-02-25T19:41:36.928Z,62.20
2019-02-25T19:44:14.761Z,62.30
2019-02-25T19:46:51.290Z,62.20
2019-02-25T19:49:26.206Z,62.20
2019-02-25T19:52:02.060Z,62.40
2019-02-25T19:54:38.424Z,62.30
2019-02-25T19:57:14.073Z,62.40
2019-02-25T19:59:50.600Z,62.30
2019-02-25T20:02:27.220Z,62.30
2019-02-25T20:05:02.145Z,62.30
2019-02-25T20:07:37.193Z,62.40
2019-02-25T20:10:13.701Z,62.50
2019-02-25T20:12:51.620Z,62.40
2019-02-25T20:15:26.471Z,62.40
2019-02-25T20:18:01.090Z,62.50
2019-02-25T20:20:39.016Z,62.50
2019-02-25T20:23:14.669Z,62.60
2019-02-25T20:25:53.397Z,62.60
2019-02-25T20:28:27.658Z,62.60
2019-02-25T20:31:02.465Z,62.50
2019-02-25T20:33:39.096Z,62.50
2019-02-25T20:36:17.228Z,62.60
2019-02-25T20:38:50.038Z,62.60
2019-02-25T20:41:28.669Z,62.60
2019-02-25T20:44:03.284Z,62.70
2019-02-25T20:46:39.100Z,62.70
2019-02-25T20:49:16.173Z,62.70
2019-02-25T20:51:50.070Z,62.70
2019-02-25T20:54:25.669Z,62.70
2019-02-25T20:57:01.786Z,62.80
2019-02-25T20:59:36.682Z,62.70
2019-02-25T21:02:16.317Z,62.70
2019-02-25T21:04:52.239Z,62.80
2019-02-25T21:07:27.538Z,62.80
2019-02-25T21:10:03.987Z,62.80
2019-02-25T21:12:39.083Z,62.80
2019-02-25T21:15:15.699Z,62.80
2019-02-25T21:17:52.187Z,62.80
2019-02-25T21:20:31.311Z,62.90
2019-02-25T21:23:08.394Z,63.00
2019-02-25T21:25:44.260Z,63.00
2019-02-25T21:28:21.258Z,63.00
2019-02-25T21:30:57.806Z,63.00
2019-02-25T21:33:32.578Z,63.00
2019-02-25T21:36:07.463Z,63.00
2019-02-25T21:38:42.325Z,63.70
2019-02-25T21:41:17.606Z,63.10
2019-02-25T21:43:54.076Z,63.20
2019-02-25T21:46:29.099Z,63.10
2019-02-25T21:49:06.739Z,63.20
2019-02-25T21:51:43.266Z,63.20
2019-02-25T21:54:17.879Z,63.70
2019-02-25T21:56:52.322Z,63.20
2019-02-25T21:59:27.008Z,63.90
2019-02-25T22:02:03.644Z,63.20
2019-02-25T22:04:42.418Z,63.30
2019-02-25T22:07:19.844Z,63.30
2019-02-25T22:09:52.829Z,63.30
2019-02-25T22:12:30.880Z,63.30
2019-02-25T22:15:03.837Z,63.40
2019-02-25T22:17:40.738Z,63.50
2019-02-25T22:20:16.685Z,63.40
2019-02-25T22:22:54.497Z,63.40
2019-02-25T22:25:35.687Z,63.30
2019-02-25T22:28:14.684Z,63.30
2019-02-25T22:30:51.878Z,63.40
2019-02-25T22:33:27.900Z,63.40
2019-02-25T22:36:05.198Z,63.50
2019-02-25T22:38:40.594Z,63.40
2019-02-25T22:41:18.856Z,63.50
2019-02-25T22:43:52.893Z,63.50
2019-02-25T22:46:29.966Z,63.50
2019-02-25T22:49:05.133Z,63.60
2019-02-25T22:51:40.781Z,63.50
2019-02-25T22:54:17.054Z,63.60
2019-02-25T22:56:52.443Z,63.50
2019-02-25T22:59:27.201Z,63.50
2019-02-25T23:02:01.505Z,63.50
2019-02-25T23:04:36.048Z,63.50
2019-02-25T23:07:12.891Z,63.60
2019-02-25T23:09:48.087Z,63.60
2019-02-25T23:12:24.257Z,63.60
2019-02-25T23:15:01.030Z,63.60
2019-02-25T23:17:37.546Z,63.50
2019-02-25T23:20:12.517Z,63.60
2019-02-25T23:22:47.646Z,63.60
2019-02-25T23:25:22.365Z,63.50
2019-02-25T23:27:58.351Z,63.60
2019-02-25T23:30:32.529Z,63.60
2019-02-25T23:33:08.038Z,63.60
2019-02-25T23:35:46.577Z,63.60
2019-02-25T23:38:20.525Z,63.60
2019-02-25T23:40:54.734Z,63.60
2019-02-25T23:43:33.757Z,63.60
2019-02-25T23:46:06.646Z,63.60
2019-02-25T23:48:46.545Z,63.60
2019-02-25T23:51:25.403Z,63.70
2019-02-25T23:54:00.908Z,63.60
2019-02-25T23:56:38.679Z,63.70
2019-02-25T23:59:14.746Z,63.70
